createdAt,value
2023-04-15T00:01:10.117Z,7.50
2023-04-15T00:03:37.153Z,5.60
2023-04-15T00:06:04.049Z,5.60
2023-04-15T00:08:31.064Z,5.60
2023-04-15T00:11:02.783Z,5.60
2023-04-15T00:13:29.801Z,5.60
2023-04-15T00:15:56.593Z,5.50
2023-04-15T00:18:24.713Z,5.50
2023-04-15T00:20:51.541Z,5.60
2023-04-15T00:23:18.456Z,5.40
2023-04-15T00:25:45.514Z,5.40
2023-04-15T00:28:12.578Z,5.40
2023-04-15T00:30:39.458Z,5.40
2023-04-15T00:33:06.842Z,5.40
2023-04-15T00:35:34.840Z,5.40
2023-04-15T00:38:01.570Z,5.40
2023-04-15T00:40:28.243Z,5.40
2023-04-15T00:42:55.123Z,5.40
2023-04-15T00:45:21.854Z,5.40
2023-04-15T00:47:48.629Z,5.30
2023-04-15T00:50:15.391Z,5.70
2023-04-15T00:55:09.434Z,5.30
2023-04-15T00:57:36.532Z,5.30
2023-04-15T01:00:04.872Z,5.30
2023-04-15T01:02:32.044Z,5.30
2023-04-15T01:04:58.842Z,5.20
2023-04-15T01:07:25.564Z,5.30
2023-04-15T01:09:52.867Z,5.20
2023-04-15T01:12:19.595Z,5.30
2023-04-15T01:15:14.752Z,5.20
2023-04-15T01:17:41.984Z,5.20
2023-04-15T01:20:10.528Z,5.10
2023-04-15T01:22:37.270Z,5.10
2023-04-15T01:25:12.401Z,4.90
2023-04-15T01:27:45.439Z,5.00
2023-04-15T01:30:12.346Z,5.10
2023-04-15T01:32:39.162Z,7.10
2023-04-15T01:35:06.592Z,5.00
2023-04-15T01:37:33.316Z,4.90
2023-04-15T01:39:59.984Z,4.90
2023-04-15T01:42:27.634Z,4.90
2023-04-15T01:44:54.467Z,4.90
2023-04-15T01:47:21.730Z,4.80
2023-04-15T01:54:42.923Z,4.80
2023-04-15T01:57:09.885Z,4.80
2023-04-15T01:59:37.147Z,4.80
2023-04-15T02:02:04.416Z,4.80
2023-04-15T02:04:31.730Z,4.70
2023-04-15T02:06:58.407Z,4.60
2023-04-15T02:09:25.091Z,4.60
2023-04-15T02:11:53.614Z,4.70
2023-04-15T02:16:47.753Z,4.80
2023-04-15T02:19:15.524Z,5.60
2023-04-15T02:21:42.318Z,4.80
2023-04-15T02:24:09.079Z,4.80
2023-04-15T02:29:03.062Z,4.80
2023-04-15T02:31:30.016Z,4.80
2023-04-15T02:33:56.816Z,4.80
2023-04-15T02:36:23.956Z,4.70
2023-04-15T02:38:50.790Z,4.70
2023-04-15T02:41:17.739Z,4.70
2023-04-15T02:43:44.427Z,4.70
2023-04-15T02:46:14.635Z,4.70
2023-04-15T02:48:41.845Z,4.70
2023-04-15T02:51:15.877Z,4.70
2023-04-15T02:53:42.873Z,4.80
2023-04-15T02:56:09.658Z,4.60
2023-04-15T02:58:36.569Z,4.70
2023-04-15T03:01:03.359Z,4.70
2023-04-15T03:03:30.201Z,4.80
2023-04-15T03:05:56.980Z,4.80
2023-04-15T03:08:23.690Z,4.70
2023-04-15T03:10:52.385Z,4.80
2023-04-15T03:15:49.346Z,4.80
2023-04-15T03:18:16.102Z,4.80
2023-04-15T03:20:42.902Z,4.80
2023-04-15T03:23:09.682Z,4.70
2023-04-15T03:25:37.460Z,4.80
2023-04-15T03:28:04.301Z,4.70
2023-04-15T03:30:31.032Z,4.80
2023-04-15T03:32:57.723Z,5.80
2023-04-15T03:35:24.501Z,4.70
2023-04-15T03:37:51.247Z,4.70
2023-04-15T03:40:17.990Z,4.70
2023-04-15T03:45:11.880Z,4.70
2023-04-15T03:47:38.668Z,4.60
2023-04-15T03:50:05.908Z,4.60
2023-04-15T03:52:32.542Z,4.60
2023-04-15T03:54:59.279Z,4.60
2023-04-15T03:57:26.415Z,4.60
2023-04-15T03:59:53.138Z,4.40
2023-04-15T04:02:19.992Z,4.50
2023-04-15T04:04:46.928Z,4.60
2023-04-15T04:07:17.054Z,4.60
2023-04-15T04:09:44.780Z,6.00
2023-04-15T04:12:12.376Z,4.60
2023-04-15T04:14:39.074Z,4.50
2023-04-15T04:17:06.140Z,4.50
2023-04-15T04:24:27.260Z,4.50
2023-04-15T04:26:54.268Z,4.50
2023-04-15T04:29:20.990Z,4.50
2023-04-15T04:31:48.820Z,4.50
2023-04-15T04:34:16.192Z,4.90
2023-04-15T04:36:42.944Z,4.40
2023-04-15T04:39:09.674Z,4.60
2023-04-15T04:41:36.352Z,4.50
2023-04-15T04:44:03.651Z,4.60
2023-04-15T04:46:30.412Z,5.00
2023-04-15T04:48:57.350Z,4.60
2023-04-15T04:51:24.101Z,4.60
2023-04-15T04:53:50.870Z,4.60
2023-04-15T04:56:17.670Z,4.70
2023-04-15T05:01:13.055Z,4.70
2023-04-15T05:03:39.885Z,4.70
2023-04-15T05:06:07.379Z,4.80
2023-04-15T05:08:34.152Z,4.80
2023-04-15T05:11:00.829Z,4.90
2023-04-15T05:13:27.606Z,4.80
2023-04-15T05:15:54.500Z,4.90
2023-04-15T05:18:21.324Z,5.00
2023-04-15T05:23:17.708Z,5.00
2023-04-15T05:25:44.462Z,4.80
2023-04-15T05:28:11.340Z,6.60
2023-04-15T05:30:38.117Z,5.00
2023-04-15T05:33:04.953Z,5.00
2023-04-15T05:35:31.638Z,4.90
2023-04-15T05:37:58.363Z,4.90
2023-04-15T05:40:25.237Z,5.00
2023-04-15T05:42:51.931Z,5.00
2023-04-15T05:45:18.919Z,5.00
2023-04-15T05:47:45.887Z,4.90
2023-04-15T05:52:39.832Z,5.00
2023-04-15T05:55:07.010Z,5.00
2023-04-15T05:57:33.821Z,4.90
2023-04-15T06:00:00.574Z,5.00
2023-04-15T06:04:54.949Z,5.00
2023-04-15T06:07:21.598Z,5.00
2023-04-15T06:12:15.835Z,5.10
2023-04-15T06:14:42.644Z,5.00
2023-04-15T06:17:09.438Z,5.10
2023-04-15T06:19:38.759Z,5.20
2023-04-15T06:22:07.172Z,7.70
2023-04-15T06:24:37.022Z,5.30
2023-04-15T06:27:03.738Z,5.40
2023-04-15T06:29:30.729Z,5.50
2023-04-15T06:31:57.600Z,5.50
2023-04-15T06:34:24.462Z,5.60
2023-04-15T06:36:51.179Z,5.60
2023-04-15T06:39:17.972Z,5.60
2023-04-15T06:41:44.625Z,5.70
2023-04-15T06:44:11.440Z,5.70
2023-04-15T06:46:38.177Z,5.80
2023-04-15T06:49:05.545Z,5.70
2023-04-15T06:51:32.771Z,5.70
2023-04-15T06:53:59.586Z,5.80
2023-04-15T06:58:53.942Z,5.80
2023-04-15T07:01:21.409Z,5.80
2023-04-15T07:03:48.155Z,5.70
2023-04-15T07:08:42.975Z,6.10
2023-04-15T07:11:09.711Z,6.10
2023-04-15T07:16:03.757Z,6.30
2023-04-15T07:18:30.692Z,6.30
2023-04-15T07:20:57.514Z,6.40
2023-04-15T07:23:24.358Z,6.40
2023-04-15T07:25:52.215Z,6.60
2023-04-15T07:28:18.977Z,6.60
2023-04-15T07:30:45.761Z,6.80
2023-04-15T07:33:12.716Z,6.80
2023-04-15T07:35:39.403Z,6.90
2023-04-15T07:38:06.135Z,7.00
2023-04-15T07:40:33.266Z,6.90
2023-04-15T07:43:00.015Z,7.00
2023-04-15T07:45:27.422Z,7.00
2023-04-15T07:50:23.364Z,7.10
2023-04-15T07:55:21.799Z,7.30
2023-04-15T07:57:48.876Z,9.10
2023-04-15T08:00:16.241Z,7.50
2023-04-15T08:05:10.933Z,7.60
2023-04-15T08:10:07.040Z,7.90
2023-04-15T08:12:33.798Z,7.90
2023-04-15T08:15:01.125Z,9.40
2023-04-15T08:17:28.318Z,8.10
2023-04-15T08:19:55.065Z,8.20
2023-04-15T08:22:22.400Z,8.20
2023-04-15T08:24:49.189Z,8.20
2023-04-15T08:27:15.862Z,8.30
2023-04-15T08:29:42.566Z,8.00
2023-04-15T08:34:36.400Z,8.30
2023-04-15T08:39:30.400Z,8.40
2023-04-15T08:42:03.543Z,8.40
2023-04-15T08:44:32.121Z,10.60
2023-04-15T08:47:01.379Z,8.40
2023-04-15T08:49:28.626Z,8.50
2023-04-15T08:51:56.664Z,8.50
2023-04-15T08:54:23.370Z,8.60
2023-04-15T08:56:51.968Z,8.60
2023-04-15T08:59:18.747Z,8.70
2023-04-15T09:04:12.939Z,8.90
2023-04-15T09:06:40.111Z,8.90
2023-04-15T09:09:06.796Z,9.00
2023-04-15T09:14:00.706Z,9.10
2023-04-15T09:16:27.695Z,9.30
2023-04-15T09:18:54.504Z,9.40
2023-04-15T09:21:21.339Z,9.40
2023-04-15T09:24:01.562Z,9.60
2023-04-15T09:26:35.739Z,11.20
2023-04-15T09:29:09.350Z,9.50
2023-04-15T09:31:36.992Z,9.50
2023-04-15T09:34:03.959Z,9.50
2023-04-15T09:36:36.843Z,9.60
2023-04-15T09:39:03.938Z,9.80
2023-04-15T09:41:30.612Z,10.00
2023-04-15T09:43:57.427Z,11.10
2023-04-15T09:46:43.811Z,10.00
2023-04-15T09:51:38.487Z,10.30
2023-04-15T09:54:05.409Z,11.40
2023-04-15T09:56:37.787Z,10.90
2023-04-15T09:59:08.230Z,11.10
2023-04-15T10:01:36.054Z,11.40
2023-04-15T10:04:06.846Z,11.80
2023-04-15T10:06:33.986Z,10.80
2023-04-15T10:09:00.756Z,10.80
2023-04-15T10:11:31.714Z,11.30
2023-04-15T10:13:58.850Z,11.20
2023-04-15T10:16:27.856Z,11.00
2023-04-15T10:18:55.632Z,11.10
2023-04-15T10:31:15.039Z,10.90
2023-04-15T10:36:09.331Z,10.80
2023-04-15T10:38:45.747Z,10.20
2023-04-15T10:41:25.873Z,9.70
2023-04-15T10:44:11.827Z,9.40
2023-04-15T10:46:47.419Z,9.40
2023-04-15T10:49:24.392Z,9.40
2023-04-15T10:51:57.802Z,9.50
2023-04-15T10:54:24.557Z,10.50
2023-04-15T10:56:52.171Z,9.80
2023-04-15T10:59:19.958Z,9.90
2023-04-15T11:01:52.913Z,10.10
2023-04-15T11:04:55.666Z,10.20
2023-04-15T11:07:38.595Z,10.30
2023-04-15T11:10:25.622Z,10.40
2023-04-15T11:13:02.464Z,10.50
2023-04-15T11:15:41.957Z,10.60
2023-04-15T11:18:17.921Z,10.60
2023-04-15T11:20:50.689Z,10.50
2023-04-15T11:23:27.564Z,11.00
2023-04-15T11:25:55.517Z,10.40
2023-04-15T11:30:49.494Z,10.20
2023-04-15T11:33:16.296Z,10.10
2023-04-15T11:35:43.081Z,10.10
2023-04-15T11:38:13.840Z,10.10
2023-04-15T11:40:41.007Z,10.10
2023-04-15T11:43:15.080Z,10.10
2023-04-15T11:45:48.708Z,10.10
2023-04-15T11:48:15.654Z,10.10
2023-04-15T11:50:42.302Z,10.20
2023-04-15T11:53:12.902Z,10.20
2023-04-15T11:55:44.667Z,14.30
2023-04-15T11:58:18.693Z,10.80
2023-04-15T12:00:57.102Z,13.90
2023-04-15T12:03:28.590Z,9.80
2023-04-15T12:06:16.842Z,9.70
2023-04-15T12:09:00.591Z,9.90
2023-04-15T12:11:27.306Z,9.80
2023-04-15T12:13:56.147Z,9.90
2023-04-15T12:16:23.415Z,11.50
2023-04-15T12:18:56.119Z,9.80
2023-04-15T12:21:23.918Z,11.30
2023-04-15T12:23:54.609Z,9.70
2023-04-15T12:26:29.006Z,9.50
2023-04-15T12:29:07.093Z,9.40
2023-04-15T12:31:37.345Z,9.40
2023-04-15T12:34:04.990Z,9.30
2023-04-15T12:36:36.337Z,9.30
2023-04-15T12:39:04.605Z,9.30
2023-04-15T12:41:31.982Z,9.30
2023-04-15T12:46:26.105Z,9.40
2023-04-15T12:48:53.404Z,9.50
2023-04-15T12:51:21.791Z,9.50
2023-04-15T12:53:49.678Z,9.50
2023-04-15T12:56:19.835Z,10.70
2023-04-15T12:58:46.546Z,9.60
2023-04-15T13:01:13.247Z,9.60
2023-04-15T13:06:08.220Z,9.60
2023-04-15T13:11:07.282Z,9.60
2023-04-15T13:13:34.118Z,9.90
2023-04-15T13:16:00.880Z,9.70
2023-04-15T13:18:27.799Z,9.60
2023-04-15T13:20:55.394Z,10.40
2023-04-15T13:23:22.037Z,9.50
2023-04-15T13:25:48.853Z,9.90
2023-04-15T13:28:15.744Z,9.40
2023-04-15T13:30:44.068Z,9.30
2023-04-15T13:33:11.341Z,10.70
2023-04-15T13:35:38.174Z,10.90
2023-04-15T13:38:04.871Z,9.40
2023-04-15T13:42:59.901Z,9.40
2023-04-15T13:45:27.006Z,12.30
2023-04-15T13:47:53.798Z,9.50
2023-04-15T13:50:20.722Z,9.50
2023-04-15T13:52:47.563Z,9.50
2023-04-15T13:55:23.051Z,9.50
2023-04-15T13:57:50.711Z,9.40
2023-04-15T14:00:17.564Z,9.30
2023-04-15T14:02:44.380Z,9.10
2023-04-15T14:10:05.990Z,8.80
2023-04-15T14:12:32.933Z,8.70
2023-04-15T14:14:59.664Z,8.70
2023-04-15T14:17:26.409Z,8.70
2023-04-15T14:19:53.199Z,8.70
2023-04-15T14:22:20.024Z,10.30
2023-04-15T14:24:48.799Z,8.70
2023-04-15T14:27:16.486Z,8.60
2023-04-15T14:29:43.187Z,8.60
2023-04-15T14:32:12.141Z,9.30
2023-04-15T14:34:40.159Z,8.60
2023-04-15T14:40:24.341Z,8.40
2023-04-15T14:45:18.397Z,8.10
2023-04-15T14:50:12.341Z,8.20
2023-04-15T14:52:39.193Z,10.70
2023-04-15T14:55:10.376Z,8.20
2023-04-15T14:57:40.474Z,9.40
2023-04-15T15:02:39.128Z,8.20
2023-04-15T15:05:07.552Z,8.10
2023-04-15T15:07:34.456Z,8.40
2023-04-15T15:10:01.212Z,8.10
2023-04-15T15:12:27.946Z,8.10
2023-04-15T15:14:55.454Z,8.00
2023-04-15T15:17:22.369Z,8.10
2023-04-15T15:19:49.268Z,8.00
2023-04-15T15:22:15.937Z,7.90
2023-04-15T15:24:42.787Z,7.90
2023-04-15T15:27:10.318Z,8.00
2023-04-15T15:29:37.873Z,8.00
2023-04-15T15:32:04.706Z,9.10
2023-04-15T15:34:31.432Z,7.90
2023-04-15T15:36:58.119Z,7.90
2023-04-15T15:39:24.872Z,7.80
2023-04-15T15:44:18.730Z,7.80
2023-04-15T15:46:45.691Z,7.70
2023-04-15T15:49:12.615Z,7.80
2023-04-15T15:51:39.317Z,7.80
2023-04-15T15:54:06.017Z,7.70
2023-04-15T15:56:33.242Z,7.80
2023-04-15T15:58:59.990Z,7.70
2023-04-15T16:01:26.762Z,7.80
2023-04-15T16:06:21.112Z,7.80
2023-04-15T16:08:47.868Z,7.60
2023-04-15T16:11:14.848Z,7.80
2023-04-15T16:13:41.581Z,7.70
2023-04-15T16:16:08.281Z,7.80
2023-04-15T16:18:35.402Z,7.80
2023-04-15T16:21:02.288Z,7.80
2023-04-15T16:25:56.281Z,7.70
2023-04-15T16:28:26.407Z,7.70
2023-04-15T16:33:21.168Z,7.70
2023-04-15T16:35:47.969Z,7.70
2023-04-15T16:38:14.692Z,7.70
2023-04-15T16:40:41.353Z,7.60
2023-04-15T16:43:11.105Z,7.60
2023-04-15T16:45:37.980Z,7.60
2023-04-15T16:48:04.911Z,7.60
2023-04-15T16:50:31.760Z,7.60
2023-04-15T16:58:01.485Z,7.60
2023-04-15T17:00:31.180Z,7.30
2023-04-15T17:02:58.592Z,7.50
2023-04-15T17:05:27.560Z,7.50
2023-04-15T17:07:54.712Z,7.50
2023-04-15T17:10:21.530Z,7.40
2023-04-15T17:12:48.279Z,7.40
2023-04-15T17:15:14.946Z,7.40
2023-04-15T17:17:41.752Z,7.30
2023-04-15T17:20:08.713Z,7.30
2023-04-15T17:22:35.445Z,7.30
2023-04-15T17:25:02.684Z,7.20
2023-04-15T17:31:17.271Z,7.10
2023-04-15T17:33:59.853Z,7.10
2023-04-15T17:36:31.188Z,7.00
2023-04-15T17:41:24.921Z,7.00
2023-04-15T17:43:51.624Z,6.90
2023-04-15T17:46:19.456Z,6.80
2023-04-15T17:48:46.758Z,6.80
2023-04-15T17:51:13.475Z,6.90
2023-04-15T17:53:40.203Z,6.80
2023-04-15T17:56:06.877Z,6.60
2023-04-15T17:58:33.649Z,6.80
2023-04-15T18:01:03.367Z,6.70
2023-04-15T18:03:30.201Z,7.20
2023-04-15T18:05:57.056Z,6.70
2023-04-15T18:08:23.693Z,6.70
2023-04-15T18:10:50.341Z,6.70
2023-04-15T18:13:19.884Z,6.60
2023-04-15T18:15:48.083Z,6.60
2023-04-15T18:18:14.923Z,6.50
2023-04-15T18:20:41.608Z,6.30
2023-04-15T18:23:08.771Z,6.40
2023-04-15T18:25:38.104Z,6.40
2023-04-15T18:28:05.351Z,6.40
2023-04-15T18:30:32.297Z,6.40
2023-04-15T18:32:59.105Z,6.40
2023-04-15T18:35:27.885Z,6.30
2023-04-15T18:37:54.671Z,7.60
2023-04-15T18:40:21.357Z,6.30
2023-04-15T18:42:48.068Z,6.20
2023-04-15T18:45:15.154Z,6.20
2023-04-15T18:47:42.383Z,6.30
2023-04-15T18:50:09.205Z,6.20
2023-04-15T18:52:36.134Z,6.20
2023-04-15T18:55:03.431Z,6.10
2023-04-15T18:57:34.934Z,6.00
2023-04-15T19:00:04.662Z,6.10
2023-04-15T19:02:33.997Z,6.00
2023-04-15T19:07:31.506Z,6.00
2023-04-15T19:09:58.576Z,6.00
2023-04-15T19:12:25.250Z,5.90
2023-04-15T19:14:52.058Z,5.90
2023-04-15T19:17:18.770Z,5.90
2023-04-15T19:19:45.619Z,5.90
2023-04-15T19:22:12.394Z,5.90
2023-04-15T19:24:40.756Z,5.90
2023-04-15T19:27:07.441Z,6.00
2023-04-15T19:29:34.434Z,5.90
2023-04-15T19:32:01.185Z,5.90
2023-04-15T19:34:30.873Z,5.80
2023-04-15T19:36:57.655Z,5.80
2023-04-15T19:39:24.391Z,5.90
2023-04-15T19:41:51.797Z,5.90
2023-04-15T19:44:19.823Z,5.90
2023-04-15T19:46:49.861Z,5.90
2023-04-15T19:51:43.683Z,5.90
2023-04-15T19:54:10.494Z,5.80
2023-04-15T19:56:37.154Z,5.90
2023-04-15T19:59:04.085Z,5.70
2023-04-15T20:01:31.507Z,5.80
2023-04-15T20:03:58.527Z,5.80
2023-04-15T20:06:27.459Z,5.90
2023-04-15T20:08:54.177Z,5.80
2023-04-15T20:11:22.210Z,5.80
2023-04-15T20:13:48.959Z,5.80
2023-04-15T20:16:16.024Z,5.80
2023-04-15T20:18:42.854Z,5.90
2023-04-15T20:21:09.600Z,5.80
2023-04-15T20:23:37.023Z,5.80
2023-04-15T20:28:31.029Z,5.80
2023-04-15T20:30:58.013Z,5.80
2023-04-15T20:38:21.891Z,5.80
2023-04-15T20:40:48.581Z,5.80
2023-04-15T20:43:15.436Z,5.70
2023-04-15T20:45:42.123Z,5.80
2023-04-15T20:51:57.359Z,5.80
2023-04-15T20:56:51.100Z,5.70
2023-04-15T20:59:17.801Z,5.80
2023-04-15T21:01:45.986Z,5.70
2023-04-15T21:04:12.692Z,5.60
2023-04-15T21:06:39.326Z,5.70
2023-04-15T21:09:06.353Z,5.70
2023-04-15T21:11:46.473Z,5.70
2023-04-15T21:14:19.853Z,5.80
2023-04-15T21:16:46.565Z,5.80
2023-04-15T21:19:13.262Z,5.70
2023-04-15T21:21:40.001Z,5.70
2023-04-15T21:24:10.084Z,5.70
2023-04-15T21:26:36.830Z,5.70
2023-04-15T21:29:03.866Z,5.70
2023-04-15T21:31:30.921Z,5.70
2023-04-15T21:33:57.619Z,5.50
2023-04-15T21:36:24.373Z,5.70
2023-04-15T21:38:51.007Z,5.60
2023-04-15T21:45:00.484Z,5.70
2023-04-15T21:52:21.594Z,5.70
2023-04-15T21:54:48.313Z,5.70
2023-04-15T21:57:15.392Z,5.60
2023-04-15T21:59:42.080Z,5.70
2023-04-15T22:02:08.803Z,5.60
2023-04-15T22:04:35.559Z,5.70
2023-04-15T22:07:02.587Z,5.60
2023-04-15T22:09:29.317Z,5.70
2023-04-15T22:11:56.030Z,5.70
2023-04-15T22:14:22.842Z,5.70
2023-04-15T22:16:49.545Z,5.70
2023-04-15T22:19:16.277Z,5.70
2023-04-15T22:21:43.023Z,5.70
2023-04-15T22:24:38.946Z,5.70
2023-04-15T22:26:56.792Z,5.70
2023-04-15T22:29:23.483Z,5.60
2023-04-15T22:31:50.462Z,5.70
2023-04-15T22:34:21.364Z,5.70
2023-04-15T22:36:48.859Z,5.70
2023-04-15T22:39:15.709Z,5.70
2023-04-15T22:41:42.512Z,5.60
2023-04-15T22:44:09.216Z,5.70
2023-04-15T22:46:36.100Z,5.70
2023-04-15T22:49:03.035Z,5.70
2023-04-15T22:51:29.842Z,5.70
2023-04-15T22:53:56.581Z,5.70
2023-04-15T22:56:23.388Z,5.70
2023-04-15T22:58:50.200Z,5.70
2023-04-15T23:01:17.841Z,5.70
2023-04-15T23:03:56.945Z,5.70
2023-04-15T23:06:31.829Z,5.60
2023-04-15T23:08:58.696Z,5.70
2023-04-15T23:11:25.446Z,5.60
2023-04-15T23:13:53.109Z,5.70
2023-04-15T23:16:19.882Z,5.60
2023-04-15T23:18:46.557Z,5.60
2023-04-15T23:21:13.235Z,5.60
2023-04-15T23:23:39.867Z,5.60
2023-04-15T23:26:06.603Z,5.60
2023-04-15T23:28:33.244Z,5.50
2023-04-15T23:31:00.701Z,5.50
2023-04-15T23:33:27.419Z,5.50
2023-04-15T23:35:54.099Z,5.50
2023-04-15T23:38:20.791Z,5.50
2023-04-15T23:40:47.498Z,5.50
2023-04-15T23:43:14.103Z,5.50
2023-04-15T23:45:40.770Z,5.50
2023-04-15T23:48:07.372Z,5.50
2023-04-15T23:50:34.289Z,5.50
2023-04-15T23:53:01.088Z,5.50
2023-04-15T23:55:27.787Z,5.50
2023-04-15T23:57:54.474Z,5.40
